Weather History for O'Neill, NE

Change the Weather History Date:

Wednesday, February 19, 2014

  Actual Average Record
Temperature  
Mean Temperature 41 °F -  
Max Temperature 58 °F 37 °F 62 °F (1981)
Min Temperature 24 °F 17 °F -13 °F (1959)
Degree Days  
Heating Degree Days 24    
Moisture  
Dew Point 18 °F    
Average Humidity 45    
Maximum Humidity 78    
Minimum Humidity 15    
Precipitation  
Precipitation 0.00 in - - ()
Sea Level Pressure  
Sea Level Pressure 29.71 in    
Wind  
Wind Speed 11 mph (SSW)    
Max Wind Speed 30 mph    
Max Gust Speed 40 mph    
Visibility 10 miles    
Events      
Averages and records for this station are not official NWS values.
T = Trace of Precipitation, MM = Missing Value Source: NWS Daily Summary

Daily Weather History Graph

Daily Weather History Graph

Search for Another Location

Airport:

Trip Planner

Search our weather history database for the weather conditions in past years. The results will help you decide how hot, cold, wet, or windy it might be!

Date:

Astronomy

Feb. 19, 2014 Rise Set
Actual Time 7:25 AM CST 6:12 PM CST
Civil Twilight 6:56 AM CST 6:40 PM CST
Nautical Twilight 6:24 AM CST 7:13 PM CST
Astronomical Twilight 5:51 AM CST 7:46 PM CST
Moon 11:14 PM CST (2/19) 9:26 AM CST (2/19)
Length of Visible Light 11h 43m
Length of Day
10h 46m
Waning Gibbous, 79% of the Moon is Illuminated
Feb 19
Waning Gibbous
Feb 22
Last Quarter
Mar 1
New
Mar 8
First Quarter
Mar 16
Full

Hourly Weather History & Observations

Time (CST) Temp. Windchill Dew Point Humidity Pressure Visibility Wind Dir Wind Speed Gust Speed Precip Events Conditions
12:15 AM 30.9 °F 24.3 °F 20.8 °F 66% 29.92 in 10.0 mi West 6.9 mph - N/A   Clear
12:35 AM 28.9 °F 21.1 °F 19.6 °F 68% 29.92 in 10.0 mi WSW 8.1 mph - N/A   Clear
12:55 AM 29.3 °F 22.3 °F 19.4 °F 67% 29.92 in 10.0 mi WSW 6.9 mph - N/A   Clear
1:15 AM 29.7 °F 23.7 °F 19.4 °F 66% 29.91 in 10.0 mi West 5.8 mph - N/A   Clear
1:35 AM 28.9 °F 25.2 °F 18.5 °F 65% 29.90 in 10.0 mi WSW 3.5 mph - N/A   Clear
1:55 AM 28.2 °F 23.1 °F 18.3 °F 66% 29.90 in 10.0 mi SW 4.6 mph - N/A   Clear
2:15 AM 25.2 °F 19.5 °F 18.1 °F 75% 29.90 in 10.0 mi WSW 4.6 mph - N/A   Clear
2:35 AM 25.2 °F 18.3 °F 18.1 °F 75% 29.90 in 10.0 mi SW 5.8 mph - N/A   Clear
2:55 AM 25.0 °F 19.3 °F 18.1 °F 75% 29.90 in 10.0 mi SW 4.6 mph - N/A   Clear
3:15 AM 24.6 °F 16.7 °F 18.0 °F 76% 29.90 in 10.0 mi SW 6.9 mph - N/A   Clear
3:35 AM 24.8 °F 17.9 °F 17.8 °F 75% 29.89 in 10.0 mi SW 5.8 mph - N/A   Clear
3:55 AM 25.9 °F 17.4 °F 18.3 °F 73% 29.89 in 10.0 mi SW 8.1 mph - N/A   Clear
4:15 AM 26.8 °F 18.5 °F 18.7 °F 72% 29.88 in 10.0 mi SW 8.1 mph - N/A   Clear
4:35 AM 26.6 °F 20.0 °F 18.3 °F 71% 29.88 in 10.0 mi SW 5.8 mph - N/A   Clear
4:55 AM 25.7 °F 18.0 °F 18.5 °F 74% 29.88 in 10.0 mi SW 6.9 mph - N/A   Clear
5:15 AM 27.5 °F 20.2 °F 19.0 °F 71% 29.88 in 10.0 mi SW 6.9 mph - N/A   Clear
5:35 AM 25.5 °F 19.9 °F 18.1 °F 74% 29.87 in 10.0 mi SW 4.6 mph - N/A   Clear
5:55 AM 26.6 °F 17.5 °F 18.5 °F 71% 29.87 in 10.0 mi SW 9.2 mph - N/A   Clear
6:15 AM 25.7 °F 19.0 °F 18.1 °F 73% 29.86 in 10.0 mi SW 5.8 mph - N/A   Clear
6:35 AM 25.7 °F 20.1 °F 17.8 °F 72% 29.85 in 10.0 mi SW 4.6 mph - N/A   Clear
6:55 AM 25.7 °F 18.0 °F 18.0 °F 73% 29.85 in 10.0 mi SSW 6.9 mph - N/A   Clear
7:15 AM 27.5 °F 20.2 °F 18.9 °F 70% 29.84 in 10.0 mi SSW 6.9 mph - N/A   Clear
7:35 AM 28.6 °F 23.5 °F 19.0 °F 67% 29.83 in 10.0 mi SSW 4.6 mph - N/A   Clear
7:55 AM 28.0 °F 22.8 °F 19.0 °F 69% 29.83 in 10.0 mi South 4.6 mph - N/A   Clear
8:15 AM 30.4 °F 24.5 °F 20.8 °F 68% 29.82 in 10.0 mi South 5.8 mph - N/A   Clear
8:35 AM 32.9 °F 25.3 °F 22.8 °F 66% 29.81 in 10.0 mi SSW 9.2 mph - N/A   Clear
8:55 AM 36.5 °F 29.2 °F 22.5 °F 57% 29.80 in 10.0 mi South 10.4 mph 16.1 mph N/A   Clear
9:15 AM 39.2 °F 31.6 °F 21.9 °F 50% 29.79 in 10.0 mi SSW 12.7 mph 20.7 mph N/A   Clear
9:35 AM 41.9 °F 33.4 °F 21.7 °F 45% 29.78 in 10.0 mi SSW 18.4 mph 24.2 mph N/A   Clear
9:55 AM 44.2 °F 36.2 °F 20.5 °F 39% 29.77 in 10.0 mi SSW 19.6 mph 27.6 mph N/A   Clear
10:15 AM 46.8 °F - 19.4 °F 34% 29.76 in 10.0 mi South 23.0 mph 28.8 mph N/A   Clear
10:35 AM 49.1 °F - 17.1 °F 28% 29.75 in 10.0 mi SSW 23.0 mph 28.8 mph N/A   Clear
10:55 AM 50.0 °F - 16.0 °F 26% 29.74 in 10.0 mi South 20.7 mph 31.1 mph N/A   Clear
11:15 AM 51.4 °F - 15.1 °F 24% 29.72 in 10.0 mi South 27.6 mph 33.4 mph N/A   Clear
11:35 AM 52.2 °F - 14.7 °F 23% 29.70 in 10.0 mi South 24.2 mph 34.5 mph N/A   Clear
11:55 AM 53.8 °F - 13.8 °F 21% 29.70 in 10.0 mi South 25.3 mph 33.4 mph N/A   Clear
12:15 PM 55.6 °F - 11.1 °F 17% 29.69 in 10.0 mi SSW 24.2 mph 35.7 mph N/A   Clear
12:35 PM 55.8 °F - 12.4 °F 18% 29.67 in 10.0 mi South 21.9 mph 36.8 mph N/A   Clear
12:55 PM 55.6 °F - 11.1 °F 17% 29.65 in 10.0 mi SSW 24.2 mph 38.0 mph N/A   Clear
1:15 PM 56.5 °F - 11.7 °F 17% 29.64 in 10.0 mi SSW 24.2 mph 34.5 mph N/A   Clear
1:35 PM 57.4 °F - 10.4 °F 16% 29.62 in 10.0 mi SSW 29.9 mph 40.3 mph N/A   Clear
1:55 PM 57.4 °F - 11.1 °F 16% 29.60 in 10.0 mi SSW 24.2 mph 36.8 mph N/A   Clear
2:15 PM 58.3 °F - 10.0 °F 15% 29.59 in 10.0 mi South 27.6 mph 38.0 mph N/A   Clear
2:35 PM 58.6 °F - 10.2 °F 15% 29.58 in 10.0 mi SSW 27.6 mph 34.5 mph N/A   Clear
2:55 PM 57.4 °F - 10.6 °F 16% 29.57 in 10.0 mi SSW 29.9 mph 36.8 mph N/A   Clear
3:15 PM 57.0 °F - 12.4 °F 17% 29.56 in 10.0 mi SSW 26.5 mph 38.0 mph N/A   Clear
3:35 PM 57.2 °F - 13.1 °F 18% 29.55 in 10.0 mi SSW 27.6 mph 35.7 mph N/A   Clear
3:55 PM 57.4 °F - 13.8 °F 18% 29.55 in 10.0 mi SSW 25.3 mph 36.8 mph N/A   Clear
4:15 PM 56.3 °F - 13.8 °F 19% 29.54 in 10.0 mi SSW 24.2 mph 31.1 mph N/A   Clear
4:35 PM 56.7 °F - 12.9 °F 18% 29.54 in 10.0 mi South 23.0 mph 28.8 mph N/A   Clear
4:55 PM 55.2 °F - 14.4 °F 20% 29.53 in 10.0 mi South 18.4 mph 32.2 mph N/A   Clear
5:15 PM 54.7 °F - 16.3 °F 22% 29.53 in 10.0 mi South 23.0 mph 34.5 mph N/A   Clear
5:35 PM 53.8 °F - 18.3 °F 25% 29.54 in 10.0 mi SSW 18.4 mph 29.9 mph N/A   Clear
5:55 PM 52.5 °F - 19.0 °F 27% 29.54 in 10.0 mi South 12.7 mph - N/A   Clear
6:15 PM 50.9 °F - 19.4 °F 29% 29.54 in 10.0 mi South 11.5 mph - N/A   Clear
6:35 PM 50.4 °F - 19.8 °F 30% 29.53 in 10.0 mi South 11.5 mph - N/A   Scattered Clouds
6:55 PM 50.0 °F - 20.5 °F 31% 29.53 in 10.0 mi South 10.4 mph 18.4 mph N/A   Mostly Cloudy
7:15 PM 49.5 °F - 20.5 °F 32% 29.53 in 10.0 mi South 9.2 mph - N/A   Overcast
7:35 PM 48.9 °F - 20.3 °F 32% 29.52 in 10.0 mi SSE 8.1 mph - N/A   Scattered Clouds
7:55 PM 48.7 °F - 20.7 °F 33% 29.51 in 10.0 mi SSE 10.4 mph - N/A   Mostly Cloudy
8:15 PM 48.4 °F - 20.8 °F 34% 29.52 in 10.0 mi South 10.4 mph - N/A   Overcast
8:35 PM 48.2 °F - 21.2 °F 34% 29.52 in 10.0 mi South 12.7 mph - N/A   Overcast
8:55 PM 47.8 °F - 21.4 °F 35% 29.52 in 10.0 mi South 12.7 mph - N/A   Scattered Clouds
9:15 PM 47.1 °F - 20.3 °F 35% 29.53 in 10.0 mi South 11.5 mph - N/A   Scattered Clouds
9:35 PM 46.0 °F 41.0 °F 20.7 °F 37% 29.53 in 10.0 mi South 10.4 mph - N/A   Mostly Cloudy
9:55 PM 45.1 °F 40.8 °F 21.0 °F 38% 29.55 in 10.0 mi SSW 8.1 mph - N/A   Overcast
10:35 PM 41.9 °F 36.3 °F 21.9 °F 45% 29.59 in 10.0 mi West 9.2 mph - N/A   Mostly Cloudy
10:55 PM 42.1 °F 34.2 °F 23.0 °F 47% 29.60 in 10.0 mi NW 16.1 mph - N/A   Scattered Clouds
11:15 PM 38.5 °F 30.7 °F 27.9 °F 66% 29.60 in 10.0 mi NW 12.7 mph - N/A   Clear
11:35 PM 37.0 °F 28.9 °F 29.8 °F 75% 29.60 in 10.0 mi NW 12.7 mph 23.0 mph N/A   Clear
11:55 PM 36.1 °F 27.7 °F 30.0 °F 78% 29.61 in 10.0 mi NW 12.7 mph - N/A   Clear